ADDS METAR Data INFO
IDs: Format: Raw Decoded Include TAF

Data at: 1841 UTC 17 Oct 2017

KLXV 171753Z AUTO 32008G16KT 10SM CLR 13/M24 A3048 RMK AO2 SLP212 T01281239 10128 21067 58008
KLXV 171653Z AUTO 35010G14KT 10SM CLR 11/M24 A3050 RMK AO2 SLP234 T01061239
KLXV 171553Z AUTO 29003KT 10SM CLR 07/M17 A3051 RMK AO2 SLP233 T00721167
KLXV 171453Z AUTO 00000KT 10SM CLR 01/M18 A3051 RMK AO2 SLP258 T00111178 53002
KLXV 171353Z AUTO 17003KT 10SM CLR M04/M19 A3051 RMK AO2 SLP276 T10391189
KLXV 171253Z AUTO 05004KT 10SM CLR M05/M21 A3051 RMK AO2 SLP260 T10501211
KLXV 171153Z AUTO 00000KT 10SM CLR M06/M19 A3050 RMK AO2 SLP250 T10611189 11017 21078 56005
KLXV 171053Z AUTO 04003KT 10SM CLR M05/M19 A3051 RMK AO2 SLP232 T10501189
KLXV 170953Z AUTO 04004KT 10SM CLR M04/M19 A3051 RMK AO2 SLP227 T10391189
KLXV 170853Z AUTO 02006KT 10SM CLR M03/M18 A3053 RMK AO2 SLP223 T10281178 56003
KLXV 170753Z AUTO 05006KT 10SM CLR M03/M17 A3053 RMK AO2 SLP228 T10331172
KLXV 170653Z AUTO 04008KT 10SM CLR M03/M17 A3053 RMK AO2 SLP229 T10281167 401501033
KLXV 170553Z AUTO 06008KT 10SM CLR M02/M17 A3054 RMK AO2 SLP232 T10221172 10106 21033 50002
KLXV 170453Z AUTO 06006KT 10SM CLR M03/M17 A3055 RMK AO2 SLP245 T10281167
KLXV 170353Z AUTO 02007KT 10SM CLR 02/M19 A3054 RMK AO2 SLP230 T00171194
KLXV 170253Z AUTO 03009KT 10SM CLR 02/M18 A3053 RMK AO2 SLP238 T00221183 51004
KLXV 170153Z AUTO 02005KT 10SM CLR 02/M17 A3052 RMK AO2 SLP261 T00221172
KLXV 170053Z AUTO 32008KT 10SM CLR 07/M19 A3052 RMK AO2 SLP234 T00721189
KLXV 162353Z AUTO 32007KT 10SM CLR 11/M21 A3051 RMK AO2 SLP219 T01061206 10150 20106 53005
KLXV 162253Z AUTO 32010KT 10SM CLR 13/M22 A3051 RMK AO2 SLP198 T01331217
KLXV 162153Z AUTO 31013G18KT 10SM CLR 14/M24 A3050 RMK AO2 SLP199 T01391244
KLXV 162053Z AUTO 30009G15KT 10SM CLR 14/M27 A3049 RMK AO2 SLP197 T01441267 56018
KLXV 161953Z AUTO 23010G23KT 200V260 10SM CLR 14/M29 A3050 RMK AO2 SLP200 T01391294
KLXV 161853Z AUTO 29011G19KT 10SM CLR 14/M27 A3054 RMK AO2 SLP218 T01391267
KLXV 161753Z AUTO 26007G17KT 230V300 10SM CLR 13/M27 A3056 RMK AO2 SLP237 T01281267 10133 21017 58006
KLXV 161653Z AUTO 35009KT 10SM CLR 12/M24 A3058 RMK AO2 SLP246 T01171239
KLXV 161553Z AUTO 34006KT 10SM CLR 10/M22 A3058 RMK AO2 SLP248 T01001222
KLXV 161453Z AUTO 00000KT 10SM CLR 06/M22 A3059 RMK AO2 SLP265 T00611217 53006
KLXV 161353Z AUTO 03003KT 10SM CLR 01/M22 A3057 RMK AO2 SLP279 T00061222
KLXV 161253Z AUTO VRB04KT 10SM CLR 01/M22 A3056 RMK AO2 SLP260 T00111217
KLXV 161153Z AUTO VRB04KT 10SM CLR 01/M22 A3056 RMK AO2 SLP242 T00111217 10033 21044 56004 $
KLXV 161053Z AUTO 02004KT 10SM CLR 03/M23 A3057 RMK AO2 SLP229 T00281228 $
KLXV 160953Z AUTO 02007KT 10SM CLR 02/M20 A3057 RMK AO2 SLP234 T00171200 $
KLXV 160853Z AUTO 02007KT 10SM CLR 01/M18 A3058 RMK AO2 SLP244 T00061178 58005 $
KLXV 160753Z AUTO 03007KT 10SM CLR 01/M18 A3059 RMK AO2 SLP243 T00111183 $
KLXV 160653Z AUTO VRB04KT 10SM CLR 00/M18 A3060 RMK AO2 SLP253 T00001178 401221100 $